This is the latest recevied weather packets stored in our database for station/object KC5TIL. If no packets are shown the sender has not sent any weather packets the latest 10 day(s).
| Time | Temp. | Humidity | Pressure | Rain* | Wind** | Luminosity | Snow |
|---|---|---|---|---|---|---|---|
| 1778081556 | 11.67° C | 92% | 1015.8 hPa | 0 mm | - | 322 W/m² | - |
| 1778081253 | 11.67° C | 92% | 1015.4 hPa | 0 mm | - | 203 W/m² | - |
| 1778080951 | 11.67° C | 92% | 1015.6 hPa | 0 mm | - | 174 W/m² | - |
| 1778080650 | 11.67° C | 92% | 1016.4 hPa | 1.78 mm | - | 115 W/m² | - |
| 1778080345 | 11.67° C | 91% | 1017.1 hPa | 3.05 mm | - | 88 W/m² | - |
| 1778080042 | 11.67° C | 91% | 1018.4 hPa | 5.33 mm | - | 13 W/m² | - |
| 1778079740 | 11.67° C | 90% | 1015.8 hPa | 6.6 mm | - | 61 W/m² | - |
| 1778079437 | 12.22° C | 87% | 1017.9 hPa | 1.27 mm | - | 23 W/m² | - |
| 1778079133 | 12.22° C | 85% | 1018.1 hPa | 0 mm | - | 11 W/m² | - |
| 1778078830 | 12.22° C | 84% | 1018.3 hPa | 0 mm | - | 12 W/m² | - |
| 1778078527 | 12.22° C | 84% | 1017.8 hPa | 0 mm | - | 29 W/m² | - |
| 1778078225 | 12.22° C | 82% | 1017.9 hPa | 0 mm | - | 31 W/m² | - |
| 1778077923 | 12.22° C | 82% | 1018 hPa | 0 mm | - | 23 W/m² | - |
| 1778077621 | 12.22° C | 82% | 1016.6 hPa | 0 mm | - | 32 W/m² | - |
| 1778077318 | 12.22° C | 82% | 1015.7 hPa | 0 mm | - | 60 W/m² | - |
| 1778077016 | 12.22° C | 82% | 1016.2 hPa | 0 mm | - | 50 W/m² | - |
| 1778076714 | 12.22° C | 82% | 1016.1 hPa | 0 mm | - | 61 W/m² | - |
| 1778076411 | 12.22° C | 82% | 1016.5 hPa | 0 mm | - | 49 W/m² | - |
| 1778076108 | 12.22° C | 82% | 1016.7 hPa | 0 mm | - | 34 W/m² | - |
| 1778075805 | 12.22° C | 82% | 1016.2 hPa | 0 mm | - | 48 W/m² | - |
| 1778075502 | 12.22° C | 82% | 1016.4 hPa | 0 mm | - | 39 W/m² | - |
| 1778075198 | 12.22° C | 82% | 1016.2 hPa | 0 mm | - | 49 W/m² | - |
| 1778074894 | 12.22° C | 82% | 1015.8 hPa | 0 mm | - | 59 W/m² | - |
| 1778074591 | 12.22° C | 82% | 1015.8 hPa | 0 mm | - | 54 W/m² | - |
| 1778074288 | 12.22° C | 81% | 1015.8 hPa | 0 mm | - | 56 W/m² | - |
* Rain latest hour (hover to see other rain measurements)
** Current wind speed in m/s (hover to see current wind gust speed)